メインページ
METAR-TAF:

METAR-TAF

空港 :

ドバイ, アラブ首長国連邦

ドバイ国際空港

緯度: 25-15-10N, 経度: 055-21-52E, 海抜: 8m

現時点の気象観測

当レポートは36分前の19:00(UTC)に作成
北/北東の風 6kt、からの間で変化する
気温 23°C
湿度 69%
気圧 1015 hPa
視程10km以上
1,500メートル以下は雲なし、積乱雲なし

METAR: OMDB 251900Z 03006KT 010V100 CAVOK 23/17 Q1015 NOSIG

時間: 23:36 (19:36 UTC)

予報

当レポートは2時間37分前の16:59(UTC)に作成
予報は25日の 18時(UTC)から 27日の 00時(UTC)まで有効
東/北東の風 5kt
視程: 8000m
高度3000ftの雲は散在している
26日の 08時(UTC)から 26日の 10時(UTC)まで徐々に
北/北西の風 10kt
26日の 16時(UTC)から 26日の 18時(UTC)まで徐々に
北東の風 5kt

TAF: OMDB 251659Z 2518/2700 06005KT 8000 SCT030 BECMG 2608/2610 33010KT BECMG 2616/2618 04005KT

4,000以上の空港の気象観測と天気予報(METAR報とTAF報)

利用可能な観測所は地図上に黄色い丸と赤い丸で示す。

丸の上にカーソルを重ねると観測所名を参照できる。

次にクリックすると気象観測と天気予報を参照できる。

マップの切り替え:黒色「×」印の緑ボタンをクリックして拡大、「-」印の緑ボタンをクリックして縮小、緑色の三角印をクリックして隣りの地図に切り替え


METAR-TAF: